Fisher Golf — FUGD — position and weather

sailwx.info

Track history (hours):
 
Tides and Currents Weather Stations Pressure Air Temp Water Temp Dewpoint Dewpoint Depression Visibility Wind Speed Wind Dir Waves Ship Positions

Fisher Golf

Last reported at 2015-Jul-05 02:06 UTC. Time now 2015-Jul-05 07:47 UTC.
Position N 46°10' W 002°58'.

Length 20 m.

Type: Fishing. MMSI: 228239000.

Date/timePositionNaut miles runAvg speedWind from/ knotsBaromVisibWave heightAir tempDewpointWater temp
2015-Jul-05 02:06N 46°10' W 002°58'2 2.6
2015-Jul-05 01:24N 46°10' W 002°56'9 6.7
2015-Jul-05 00:08N 46°07' W 002°44'910.1
2015-Jul-04 23:14N 46°05' W 002°31'1110.2
2015-Jul-04 22:11N 46°03' W 002°16'610.1
2015-Jul-04 21:33N 46°01' W 002°07'10 9.8
2015-Jul-04 20:33N 45°59' W 001°53'9 9.4
2015-Jul-04 19:33N 45°57' W 001°40'9 8.8
2015-Jul-04 18:33N 45°55' W 001°28'6 0.4
2015-Jul-04 05:29N 45°55' W 001°20'0 0.1
2015-Jul-04 04:16N 45°55' W 001°20'0 0.0
2015-Jul-04 03:27N 45°55' W 001°20'0 0.0
2015-Jul-04 02:33N 45°55' W 001°20'0 0.0
2015-Jul-04 01:33N 45°55' W 001°20'0 0.0
2015-Jul-04 00:33N 45°55' W 001°20'0 0.0
2015-Jul-03 23:32N 45°55' W 001°20'0 0.0
2015-Jul-03 06:25N 45°55' W 001°20'  
Track history (hours):
 
Tides and Currents Weather Stations Pressure Air Temp Water Temp Dewpoint Dewpoint Depression Visibility Wind Speed Wind Dir Waves Ship Positions

Fisher Golf

Last reported at 2015-Jul-05 02:06 UTC. Time now 2015-Jul-05 07:47 UTC.
Position N 46°10' W 002°58'.

Length 20 m.

Type: Fishing. MMSI: 228239000.

Date/timePositionNaut miles runAvg speedWind from/ knotsBaromVisibWave heightAir tempDewpointWater temp
2015-Jul-05 02:06N 46°10' W 002°58'2 2.6
2015-Jul-05 01:24N 46°10' W 002°56'9 6.7
2015-Jul-05 00:08N 46°07' W 002°44'910.1
2015-Jul-04 23:14N 46°05' W 002°31'1110.2
2015-Jul-04 22:11N 46°03' W 002°16'610.1
2015-Jul-04 21:33N 46°01' W 002°07'10 9.8
2015-Jul-04 20:33N 45°59' W 001°53'9 9.4
2015-Jul-04 19:33N 45°57' W 001°40'9 8.8
2015-Jul-04 18:33N 45°55' W 001°28'6 0.4
2015-Jul-04 05:29N 45°55' W 001°20'0 0.1
2015-Jul-04 04:16N 45°55' W 001°20'0 0.0
2015-Jul-04 03:27N 45°55' W 001°20'0 0.0
2015-Jul-04 02:33N 45°55' W 001°20'0 0.0
2015-Jul-04 01:33N 45°55' W 001°20'0 0.0
2015-Jul-04 00:33N 45°55' W 001°20'0 0.0
2015-Jul-03 23:32N 45°55' W 001°20'0 0.0
2015-Jul-03 06:25N 45°55' W 001°20'  

Dump ship's entire track history